sensor_id;sensor_type;location;lat;lon;timestamp;P1;durP1;ratioP1;P2;durP2;ratioP2
54235;SDS011;40151;43.606;1.472;2022-12-18T00:01:22;8.25;;;5.25;;
54235;SDS011;40151;43.606;1.472;2022-12-18T00:03:50;6.97;;;5.22;;
54235;SDS011;40151;43.606;1.472;2022-12-18T00:06:17;7.22;;;5.07;;
54235;SDS011;40151;43.606;1.472;2022-12-18T00:08:43;7.72;;;5.30;;
54235;SDS011;40151;43.606;1.472;2022-12-18T00:11:13;7.32;;;5.22;;
54235;SDS011;40151;43.606;1.472;2022-12-18T00:13:40;7.82;;;5.60;;
54235;SDS011;40151;43.606;1.472;2022-12-18T00:16:07;7.97;;;5.32;;
54235;SDS011;40151;43.606;1.472;2022-12-18T00:18:35;7.18;;;5.00;;
54235;SDS011;40151;43.606;1.472;2022-12-18T00:21:02;7.57;;;5.10;;
54235;SDS011;40151;43.606;1.472;2022-12-18T00:23:30;8.13;;;5.20;;
54235;SDS011;40151;43.606;1.472;2022-12-18T00:26:03;7.82;;;4.80;;
54235;SDS011;40151;43.606;1.472;2022-12-18T00:28:31;7.50;;;5.18;;
54235;SDS011;40151;43.606;1.472;2022-12-18T00:31:06;7.43;;;5.25;;
54235;SDS011;40151;43.606;1.472;2022-12-18T00:33:34;8.13;;;5.30;;
54235;SDS011;40151;43.606;1.472;2022-12-18T00:36:04;7.20;;;4.85;;
54235;SDS011;40151;43.606;1.472;2022-12-18T00:38:32;8.65;;;5.50;;
54235;SDS011;40151;43.606;1.472;2022-12-18T00:40:58;7.40;;;4.82;;
54235;SDS011;40151;43.606;1.472;2022-12-18T00:43:23;6.78;;;4.78;;
54235;SDS011;40151;43.606;1.472;2022-12-18T00:45:49;6.47;;;4.88;;
54235;SDS011;40151;43.606;1.472;2022-12-18T00:48:14;7.97;;;5.43;;
54235;SDS011;40151;43.606;1.472;2022-12-18T00:50:40;7.07;;;5.00;;
54235;SDS011;40151;43.606;1.472;2022-12-18T00:53:05;7.35;;;4.57;;
54235;SDS011;40151;43.606;1.472;2022-12-18T00:55:31;7.50;;;5.32;;
54235;SDS011;40151;43.606;1.472;2022-12-18T00:57:57;8.15;;;5.22;;
54235;SDS011;40151;43.606;1.472;2022-12-18T01:00:22;7.45;;;5.05;;
54235;SDS011;40151;43.606;1.472;2022-12-18T01:02:48;6.78;;;4.45;;
54235;SDS011;40151;43.606;1.472;2022-12-18T01:05:14;7.20;;;4.63;;
54235;SDS011;40151;43.606;1.472;2022-12-18T01:07:39;7.15;;;4.93;;
54235;SDS011;40151;43.606;1.472;2022-12-18T01:10:05;6.38;;;4.43;;
54235;SDS011;40151;43.606;1.472;2022-12-18T01:12:32;6.88;;;4.40;;
54235;SDS011;40151;43.606;1.472;2022-12-18T01:14:58;8.57;;;5.07;;
54235;SDS011;40151;43.606;1.472;2022-12-18T01:17:24;7.80;;;4.72;;
54235;SDS011;40151;43.606;1.472;2022-12-18T01:19:49;6.60;;;4.50;;
54235;SDS011;40151;43.606;1.472;2022-12-18T01:22:15;7.55;;;4.90;;
54235;SDS011;40151;43.606;1.472;2022-12-18T01:24:40;6.70;;;4.45;;
54235;SDS011;40151;43.606;1.472;2022-12-18T01:27:05;7.70;;;5.03;;
54235;SDS011;40151;43.606;1.472;2022-12-18T01:29:31;6.93;;;4.78;;
54235;SDS011;40151;43.606;1.472;2022-12-18T01:31:56;7.40;;;4.60;;
54235;SDS011;40151;43.606;1.472;2022-12-18T01:34:22;6.80;;;5.03;;
54235;SDS011;40151;43.606;1.472;2022-12-18T01:36:49;7.35;;;4.88;;
54235;SDS011;40151;43.606;1.472;2022-12-18T01:39:17;6.47;;;4.53;;
54235;SDS011;40151;43.606;1.472;2022-12-18T01:41:43;7.90;;;4.65;;
54235;SDS011;40151;43.606;1.472;2022-12-18T01:49:51;6.70;;;4.60;;
54235;SDS011;40151;43.606;1.472;2022-12-18T01:52:17;8.10;;;5.18;;
54235;SDS011;40151;43.606;1.472;2022-12-18T01:54:45;7.35;;;4.90;;
54235;SDS011;40151;43.606;1.472;2022-12-18T01:57:12;7.80;;;4.55;;
54235;SDS011;40151;43.606;1.472;2022-12-18T01:59:38;8.02;;;4.68;;
54235;SDS011;40151;43.606;1.472;2022-12-18T02:02:06;6.82;;;4.50;;
54235;SDS011;40151;43.606;1.472;2022-12-18T02:04:32;7.22;;;4.45;;
54235;SDS011;40151;43.606;1.472;2022-12-18T02:07:00;6.85;;;4.45;;
54235;SDS011;40151;43.606;1.472;2022-12-18T02:09:37;7.20;;;5.07;;
54235;SDS011;40151;43.606;1.472;2022-12-18T02:17:13;5.93;;;4.07;;
54235;SDS011;40151;43.606;1.472;2022-12-18T02:27:18;7.47;;;4.95;;
54235;SDS011;40151;43.606;1.472;2022-12-18T02:29:51;6.95;;;4.72;;
54235;SDS011;40151;43.606;1.472;2022-12-18T02:32:24;7.10;;;4.60;;
54235;SDS011;40151;43.606;1.472;2022-12-18T02:34:52;6.97;;;4.63;;
54235;SDS011;40151;43.606;1.472;2022-12-18T02:37:20;6.57;;;4.65;;
54235;SDS011;40151;43.606;1.472;2022-12-18T02:39:48;7.03;;;4.50;;
54235;SDS011;40151;43.606;1.472;2022-12-18T02:42:16;6.97;;;4.40;;
54235;SDS011;40151;43.606;1.472;2022-12-18T02:44:47;6.38;;;4.13;;
54235;SDS011;40151;43.606;1.472;2022-12-18T02:47:15;7.10;;;4.45;;
54235;SDS011;40151;43.606;1.472;2022-12-18T02:55:09;6.72;;;4.72;;
54235;SDS011;40151;43.606;1.472;2022-12-18T02:57:50;5.78;;;3.90;;
54235;SDS011;40151;43.606;1.472;2022-12-18T03:03:11;6.18;;;4.22;;
54235;SDS011;40151;43.606;1.472;2022-12-18T03:05:46;6.93;;;4.25;;
54235;SDS011;40151;43.606;1.472;2022-12-18T03:08:27;7.03;;;4.45;;
54235;SDS011;40151;43.606;1.472;2022-12-18T03:11:01;6.60;;;4.30;;
54235;SDS011;40151;43.606;1.472;2022-12-18T03:13:31;6.22;;;4.10;;
54235;SDS011;40151;43.606;1.472;2022-12-18T03:16:00;6.57;;;4.00;;
54235;SDS011;40151;43.606;1.472;2022-12-18T03:18:35;7.30;;;4.65;;
54235;SDS011;40151;43.606;1.472;2022-12-18T03:21:07;7.18;;;4.07;;
54235;SDS011;40151;43.606;1.472;2022-12-18T03:23:40;8.05;;;4.60;;
54235;SDS011;40151;43.606;1.472;2022-12-18T03:26:10;6.63;;;4.07;;
54235;SDS011;40151;43.606;1.472;2022-12-18T03:28:42;6.95;;;4.85;;
54235;SDS011;40151;43.606;1.472;2022-12-18T03:31:12;7.03;;;4.78;;
54235;SDS011;40151;43.606;1.472;2022-12-18T03:33:45;6.47;;;4.40;;
54235;SDS011;40151;43.606;1.472;2022-12-18T03:36:16;7.03;;;4.47;;
54235;SDS011;40151;43.606;1.472;2022-12-18T03:38:41;7.10;;;4.18;;
54235;SDS011;40151;43.606;1.472;2022-12-18T03:47:14;7.53;;;5.03;;
54235;SDS011;40151;43.606;1.472;2022-12-18T03:52:18;5.72;;;4.20;;
54235;SDS011;40151;43.606;1.472;2022-12-18T03:54:50;6.45;;;4.53;;
54235;SDS011;40151;43.606;1.472;2022-12-18T03:57:21;7.60;;;5.20;;
54235;SDS011;40151;43.606;1.472;2022-12-18T03:59:49;6.60;;;4.32;;
54235;SDS011;40151;43.606;1.472;2022-12-18T04:02:19;6.88;;;4.70;;
54235;SDS011;40151;43.606;1.472;2022-12-18T04:04:47;6.88;;;4.43;;
54235;SDS011;40151;43.606;1.472;2022-12-18T04:07:16;6.15;;;4.55;;
54235;SDS011;40151;43.606;1.472;2022-12-18T04:09:42;7.18;;;4.55;;
54235;SDS011;40151;43.606;1.472;2022-12-18T04:12:10;7.38;;;5.05;;
54235;SDS011;40151;43.606;1.472;2022-12-18T04:14:35;6.43;;;4.55;;
54235;SDS011;40151;43.606;1.472;2022-12-18T04:17:01;6.80;;;4.95;;
54235;SDS011;40151;43.606;1.472;2022-12-18T04:19:27;6.95;;;4.22;;
54235;SDS011;40151;43.606;1.472;2022-12-18T04:21:53;6.63;;;4.63;;
54235;SDS011;40151;43.606;1.472;2022-12-18T04:24:19;6.90;;;4.82;;
54235;SDS011;40151;43.606;1.472;2022-12-18T04:26:44;6.10;;;4.15;;
54235;SDS011;40151;43.606;1.472;2022-12-18T04:29:10;7.05;;;4.70;;
54235;SDS011;40151;43.606;1.472;2022-12-18T04:31:36;6.13;;;4.30;;
54235;SDS011;40151;43.606;1.472;2022-12-18T04:34:01;5.10;;;3.85;;
54235;SDS011;40151;43.606;1.472;2022-12-18T04:36:27;6.00;;;4.22;;
54235;SDS011;40151;43.606;1.472;2022-12-18T04:38:52;7.25;;;4.47;;
54235;SDS011;40151;43.606;1.472;2022-12-18T04:41:18;6.18;;;4.10;;
54235;SDS011;40151;43.606;1.472;2022-12-18T04:43:43;5.90;;;4.00;;
54235;SDS011;40151;43.606;1.472;2022-12-18T04:46:08;6.50;;;4.45;;
54235;SDS011;40151;43.606;1.472;2022-12-18T04:48:34;6.53;;;4.50;;
54235;SDS011;40151;43.606;1.472;2022-12-18T04:51:00;5.80;;;3.97;;
54235;SDS011;40151;43.606;1.472;2022-12-18T04:53:25;6.95;;;4.68;;
54235;SDS011;40151;43.606;1.472;2022-12-18T04:56:01;6.55;;;4.22;;
54235;SDS011;40151;43.606;1.472;2022-12-18T04:58:28;7.93;;;4.65;;
54235;SDS011;40151;43.606;1.472;2022-12-18T05:00:54;6.15;;;4.28;;
54235;SDS011;40151;43.606;1.472;2022-12-18T05:03:19;6.07;;;4.18;;
54235;SDS011;40151;43.606;1.472;2022-12-18T05:05:44;6.53;;;3.92;;
54235;SDS011;40151;43.606;1.472;2022-12-18T05:08:10;5.22;;;3.80;;
54235;SDS011;40151;43.606;1.472;2022-12-18T05:10:35;6.40;;;4.03;;
54235;SDS011;40151;43.606;1.472;2022-12-18T05:13:00;6.03;;;4.20;;
54235;SDS011;40151;43.606;1.472;2022-12-18T05:15:29;5.75;;;3.88;;
54235;SDS011;40151;43.606;1.472;2022-12-18T05:17:56;5.85;;;3.92;;
54235;SDS011;40151;43.606;1.472;2022-12-18T05:20:23;6.20;;;4.40;;
54235;SDS011;40151;43.606;1.472;2022-12-18T05:22:49;5.50;;;3.67;;
54235;SDS011;40151;43.606;1.472;2022-12-18T05:25:16;6.38;;;4.05;;
54235;SDS011;40151;43.606;1.472;2022-12-18T05:27:42;6.22;;;3.75;;
54235;SDS011;40151;43.606;1.472;2022-12-18T05:30:07;5.05;;;3.58;;
54235;SDS011;40151;43.606;1.472;2022-12-18T05:32:34;5.72;;;3.75;;
54235;SDS011;40151;43.606;1.472;2022-12-18T05:34:59;6.22;;;4.15;;
54235;SDS011;40151;43.606;1.472;2022-12-18T05:37:25;5.90;;;4.10;;
54235;SDS011;40151;43.606;1.472;2022-12-18T05:39:50;6.30;;;4.20;;
54235;SDS011;40151;43.606;1.472;2022-12-18T05:42:16;4.95;;;3.50;;
54235;SDS011;40151;43.606;1.472;2022-12-18T05:44:41;5.50;;;3.70;;
54235;SDS011;40151;43.606;1.472;2022-12-18T05:47:08;5.18;;;3.70;;
54235;SDS011;40151;43.606;1.472;2022-12-18T05:49:33;6.25;;;4.15;;
54235;SDS011;40151;43.606;1.472;2022-12-18T05:51:59;5.38;;;3.55;;
54235;SDS011;40151;43.606;1.472;2022-12-18T05:54:26;5.70;;;3.78;;
54235;SDS011;40151;43.606;1.472;2022-12-18T05:56:52;5.50;;;3.70;;
54235;SDS011;40151;43.606;1.472;2022-12-18T05:59:18;6.05;;;4.00;;
54235;SDS011;40151;43.606;1.472;2022-12-18T06:01:44;5.97;;;3.58;;
54235;SDS011;40151;43.606;1.472;2022-12-18T06:04:10;5.82;;;3.78;;
54235;SDS011;40151;43.606;1.472;2022-12-18T06:06:35;5.00;;;3.78;;
54235;SDS011;40151;43.606;1.472;2022-12-18T06:09:01;6.05;;;4.13;;
54235;SDS011;40151;43.606;1.472;2022-12-18T06:11:33;5.97;;;3.70;;
54235;SDS011;40151;43.606;1.472;2022-12-18T06:14:00;6.43;;;3.95;;
54235;SDS011;40151;43.606;1.472;2022-12-18T06:16:26;5.05;;;3.50;;
54235;SDS011;40151;43.606;1.472;2022-12-18T06:18:52;5.93;;;3.78;;
54235;SDS011;40151;43.606;1.472;2022-12-18T06:21:18;5.53;;;3.90;;
54235;SDS011;40151;43.606;1.472;2022-12-18T06:23:44;6.20;;;3.45;;
54235;SDS011;40151;43.606;1.472;2022-12-18T06:26:10;5.55;;;3.65;;
54235;SDS011;40151;43.606;1.472;2022-12-18T06:28:36;5.30;;;3.63;;
54235;SDS011;40151;43.606;1.472;2022-12-18T06:31:03;6.13;;;3.97;;
54235;SDS011;40151;43.606;1.472;2022-12-18T06:33:29;5.00;;;3.42;;
54235;SDS011;40151;43.606;1.472;2022-12-18T06:35:59;5.60;;;3.55;;
54235;SDS011;40151;43.606;1.472;2022-12-18T06:38:26;4.95;;;3.20;;
54235;SDS011;40151;43.606;1.472;2022-12-18T06:40:52;5.95;;;4.13;;
54235;SDS011;40151;43.606;1.472;2022-12-18T06:43:17;5.90;;;4.03;;
54235;SDS011;40151;43.606;1.472;2022-12-18T06:45:42;5.00;;;3.30;;
54235;SDS011;40151;43.606;1.472;2022-12-18T06:48:08;5.80;;;3.70;;
54235;SDS011;40151;43.606;1.472;2022-12-18T06:50:33;6.07;;;3.92;;
54235;SDS011;40151;43.606;1.472;2022-12-18T06:52:59;5.88;;;3.95;;
54235;SDS011;40151;43.606;1.472;2022-12-18T06:55:24;5.25;;;3.53;;
54235;SDS011;40151;43.606;1.472;2022-12-18T06:57:50;5.57;;;3.88;;
54235;SDS011;40151;43.606;1.472;2022-12-18T07:00:16;5.93;;;3.40;;
54235;SDS011;40151;43.606;1.472;2022-12-18T07:02:42;5.93;;;3.80;;
54235;SDS011;40151;43.606;1.472;2022-12-18T07:05:07;5.40;;;3.40;;
54235;SDS011;40151;43.606;1.472;2022-12-18T07:07:33;4.70;;;3.30;;
54235;SDS011;40151;43.606;1.472;2022-12-18T07:10:00;5.40;;;3.60;;
54235;SDS011;40151;43.606;1.472;2022-12-18T07:12:26;5.55;;;3.67;;
54235;SDS011;40151;43.606;1.472;2022-12-18T07:14:52;5.32;;;3.42;;
54235;SDS011;40151;43.606;1.472;2022-12-18T07:17:17;5.10;;;3.30;;
54235;SDS011;40151;43.606;1.472;2022-12-18T07:19:43;5.00;;;3.63;;
54235;SDS011;40151;43.606;1.472;2022-12-18T07:22:08;5.85;;;3.55;;
54235;SDS011;40151;43.606;1.472;2022-12-18T07:24:33;5.20;;;4.03;;
54235;SDS011;40151;43.606;1.472;2022-12-18T07:26:59;5.38;;;3.40;;
54235;SDS011;40151;43.606;1.472;2022-12-18T07:29:25;5.72;;;3.75;;
54235;SDS011;40151;43.606;1.472;2022-12-18T07:31:50;5.75;;;3.85;;
54235;SDS011;40151;43.606;1.472;2022-12-18T07:34:16;5.65;;;4.20;;
54235;SDS011;40151;43.606;1.472;2022-12-18T07:36:41;5.57;;;3.45;;
54235;SDS011;40151;43.606;1.472;2022-12-18T07:39:07;6.47;;;4.00;;
54235;SDS011;40151;43.606;1.472;2022-12-18T07:41:33;5.63;;;3.97;;
54235;SDS011;40151;43.606;1.472;2022-12-18T07:43:58;5.20;;;3.53;;
54235;SDS011;40151;43.606;1.472;2022-12-18T07:46:24;6.05;;;4.10;;
54235;SDS011;40151;43.606;1.472;2022-12-18T07:48:49;6.85;;;3.83;;
54235;SDS011;40151;43.606;1.472;2022-12-18T07:51:15;5.93;;;3.63;;
54235;SDS011;40151;43.606;1.472;2022-12-18T07:53:40;5.63;;;3.50;;
54235;SDS011;40151;43.606;1.472;2022-12-18T07:56:07;5.22;;;3.35;;
54235;SDS011;40151;43.606;1.472;2022-12-18T07:58:34;5.05;;;3.40;;
54235;SDS011;40151;43.606;1.472;2022-12-18T08:01:04;5.82;;;4.10;;
54235;SDS011;40151;43.606;1.472;2022-12-18T08:03:31;6.05;;;4.28;;
54235;SDS011;40151;43.606;1.472;2022-12-18T08:06:00;5.97;;;3.85;;
54235;SDS011;40151;43.606;1.472;2022-12-18T08:08:27;5.93;;;3.97;;
54235;SDS011;40151;43.606;1.472;2022-12-18T08:10:53;5.22;;;3.45;;
54235;SDS011;40151;43.606;1.472;2022-12-18T08:13:18;5.10;;;3.30;;
54235;SDS011;40151;43.606;1.472;2022-12-18T08:15:44;5.90;;;4.10;;
54235;SDS011;40151;43.606;1.472;2022-12-18T08:18:09;5.43;;;3.72;;
54235;SDS011;40151;43.606;1.472;2022-12-18T08:20:35;5.65;;;3.83;;
54235;SDS011;40151;43.606;1.472;2022-12-18T08:23:00;7.63;;;4.18;;
54235;SDS011;40151;43.606;1.472;2022-12-18T08:25:25;5.53;;;3.50;;
54235;SDS011;40151;43.606;1.472;2022-12-18T08:27:51;6.55;;;4.28;;
54235;SDS011;40151;43.606;1.472;2022-12-18T08:30:16;5.55;;;3.83;;
54235;SDS011;40151;43.606;1.472;2022-12-18T08:32:42;5.05;;;3.38;;
54235;SDS011;40151;43.606;1.472;2022-12-18T08:35:07;5.68;;;3.78;;
54235;SDS011;40151;43.606;1.472;2022-12-18T08:37:33;5.43;;;4.00;;
54235;SDS011;40151;43.606;1.472;2022-12-18T08:39:59;6.00;;;3.95;;
54235;SDS011;40151;43.606;1.472;2022-12-18T08:42:25;6.72;;;4.20;;
54235;SDS011;40151;43.606;1.472;2022-12-18T08:45:08;6.70;;;4.53;;
54235;SDS011;40151;43.606;1.472;2022-12-18T08:47:34;6.55;;;4.30;;
54235;SDS011;40151;43.606;1.472;2022-12-18T08:49:59;6.85;;;4.30;;
54235;SDS011;40151;43.606;1.472;2022-12-18T08:52:25;6.95;;;4.40;;
54235;SDS011;40151;43.606;1.472;2022-12-18T08:54:50;7.15;;;4.80;;
54235;SDS011;40151;43.606;1.472;2022-12-18T08:57:16;8.27;;;4.53;;
54235;SDS011;40151;43.606;1.472;2022-12-18T08:59:41;6.07;;;4.70;;
54235;SDS011;40151;43.606;1.472;2022-12-18T09:02:08;6.53;;;4.28;;
54235;SDS011;40151;43.606;1.472;2022-12-18T09:04:37;6.32;;;4.32;;
54235;SDS011;40151;43.606;1.472;2022-12-18T09:07:02;6.93;;;4.13;;
54235;SDS011;40151;43.606;1.472;2022-12-18T09:09:27;6.75;;;4.72;;
54235;SDS011;40151;43.606;1.472;2022-12-18T09:11:53;7.25;;;4.82;;
54235;SDS011;40151;43.606;1.472;2022-12-18T09:14:18;6.05;;;4.13;;
54235;SDS011;40151;43.606;1.472;2022-12-18T09:16:44;5.97;;;4.05;;
54235;SDS011;40151;43.606;1.472;2022-12-18T09:19:09;6.28;;;4.35;;
54235;SDS011;40151;43.606;1.472;2022-12-18T09:21:35;7.80;;;4.13;;
54235;SDS011;40151;43.606;1.472;2022-12-18T09:24:00;6.05;;;4.00;;
54235;SDS011;40151;43.606;1.472;2022-12-18T09:26:26;6.78;;;4.10;;
54235;SDS011;40151;43.606;1.472;2022-12-18T09:28:52;7.00;;;4.20;;
54235;SDS011;40151;43.606;1.472;2022-12-18T09:31:19;6.22;;;4.05;;
54235;SDS011;40151;43.606;1.472;2022-12-18T09:33:45;5.82;;;3.80;;
54235;SDS011;40151;43.606;1.472;2022-12-18T09:36:12;6.30;;;4.25;;
54235;SDS011;40151;43.606;1.472;2022-12-18T09:38:39;6.20;;;3.92;;
54235;SDS011;40151;43.606;1.472;2022-12-18T09:44:14;5.97;;;3.78;;
54235;SDS011;40151;43.606;1.472;2022-12-18T09:46:44;6.45;;;4.03;;
54235;SDS011;40151;43.606;1.472;2022-12-18T09:49:15;6.35;;;3.42;;
54235;SDS011;40151;43.606;1.472;2022-12-18T09:51:50;7.50;;;4.18;;
54235;SDS011;40151;43.606;1.472;2022-12-18T09:54:22;6.97;;;3.83;;
54235;SDS011;40151;43.606;1.472;2022-12-18T09:56:51;6.55;;;4.00;;
54235;SDS011;40151;43.606;1.472;2022-12-18T10:01:48;5.65;;;3.47;;
54235;SDS011;40151;43.606;1.472;2022-12-18T10:04:14;6.35;;;3.60;;
54235;SDS011;40151;43.606;1.472;2022-12-18T10:06:44;5.28;;;3.35;;
54235;SDS011;40151;43.606;1.472;2022-12-18T10:20:43;5.75;;;3.50;;
54235;SDS011;40151;43.606;1.472;2022-12-18T10:23:01;5.95;;;4.07;;
54235;SDS011;40151;43.606;1.472;2022-12-18T10:25:50;5.45;;;3.33;;
54235;SDS011;40151;43.606;1.472;2022-12-18T10:28:19;5.68;;;3.40;;
54235;SDS011;40151;43.606;1.472;2022-12-18T10:30:45;5.40;;;3.10;;
54235;SDS011;40151;43.606;1.472;2022-12-18T10:33:16;5.07;;;3.10;;
54235;SDS011;40151;43.606;1.472;2022-12-18T10:35:44;6.10;;;3.67;;
54235;SDS011;40151;43.606;1.472;2022-12-18T10:43:21;6.18;;;3.10;;
54235;SDS011;40151;43.606;1.472;2022-12-18T10:51:21;5.22;;;3.00;;
54235;SDS011;40151;43.606;1.472;2022-12-18T10:54:01;5.65;;;3.25;;
54235;SDS011;40151;43.606;1.472;2022-12-18T10:56:30;5.55;;;3.33;;
54235;SDS011;40151;43.606;1.472;2022-12-18T10:59:02;5.82;;;3.20;;
54235;SDS011;40151;43.606;1.472;2022-12-18T11:01:46;6.10;;;3.28;;
54235;SDS011;40151;43.606;1.472;2022-12-18T11:04:26;4.38;;;2.90;;
54235;SDS011;40151;43.606;1.472;2022-12-18T11:09:23;4.47;;;2.65;;
54235;SDS011;40151;43.606;1.472;2022-12-18T11:11:51;4.57;;;3.08;;
54235;SDS011;40151;43.606;1.472;2022-12-18T11:14:29;5.20;;;2.97;;
54235;SDS011;40151;43.606;1.472;2022-12-18T11:16:58;5.97;;;2.83;;
54235;SDS011;40151;43.606;1.472;2022-12-18T11:22:18;4.95;;;2.97;;
54235;SDS011;40151;43.606;1.472;2022-12-18T11:24:52;5.10;;;2.75;;
54235;SDS011;40151;43.606;1.472;2022-12-18T11:27:26;4.95;;;2.95;;
54235;SDS011;40151;43.606;1.472;2022-12-18T11:30:06;5.45;;;3.40;;
54235;SDS011;40151;43.606;1.472;2022-12-18T11:32:45;5.18;;;2.75;;
54235;SDS011;40151;43.606;1.472;2022-12-18T11:35:16;5.97;;;3.10;;
54235;SDS011;40151;43.606;1.472;2022-12-18T11:37:49;5.03;;;3.10;;
54235;SDS011;40151;43.606;1.472;2022-12-18T11:40:41;4.35;;;2.30;;
54235;SDS011;40151;43.606;1.472;2022-12-18T11:43:13;5.55;;;2.67;;
54235;SDS011;40151;43.606;1.472;2022-12-18T11:46:04;4.35;;;2.78;;
54235;SDS011;40151;43.606;1.472;2022-12-18T11:48:37;4.53;;;2.63;;
54235;SDS011;40151;43.606;1.472;2022-12-18T11:51:12;4.57;;;2.67;;
54235;SDS011;40151;43.606;1.472;2022-12-18T11:53:44;4.85;;;2.72;;
54235;SDS011;40151;43.606;1.472;2022-12-18T12:01:45;5.07;;;2.80;;
54235;SDS011;40151;43.606;1.472;2022-12-18T12:09:35;5.57;;;2.38;;
54235;SDS011;40151;43.606;1.472;2022-12-18T12:20:42;5.13;;;2.70;;
54235;SDS011;40151;43.606;1.472;2022-12-18T12:23:41;5.80;;;2.95;;
54235;SDS011;40151;43.606;1.472;2022-12-18T12:40:07;5.45;;;3.38;;
54235;SDS011;40151;43.606;1.472;2022-12-18T12:42:43;5.32;;;2.92;;
54235;SDS011;40151;43.606;1.472;2022-12-18T12:45:44;4.97;;;3.22;;
54235;SDS011;40151;43.606;1.472;2022-12-18T12:51:16;4.40;;;2.90;;
54235;SDS011;40151;43.606;1.472;2022-12-18T12:53:44;5.13;;;2.90;;
54235;SDS011;40151;43.606;1.472;2022-12-18T12:56:11;6.40;;;2.88;;
54235;SDS011;40151;43.606;1.472;2022-12-18T12:58:51;5.20;;;3.22;;
54235;SDS011;40151;43.606;1.472;2022-12-18T13:01:27;5.85;;;2.97;;
54235;SDS011;40151;43.606;1.472;2022-12-18T13:04:18;4.97;;;2.70;;
54235;SDS011;40151;43.606;1.472;2022-12-18T13:07:06;4.30;;;2.67;;
54235;SDS011;40151;43.606;1.472;2022-12-18T13:12:35;4.63;;;2.90;;
54235;SDS011;40151;43.606;1.472;2022-12-18T13:15:39;5.20;;;2.97;;
54235;SDS011;40151;43.606;1.472;2022-12-18T13:25:48;5.07;;;3.00;;
54235;SDS011;40151;43.606;1.472;2022-12-18T13:28:20;4.63;;;2.70;;
54235;SDS011;40151;43.606;1.472;2022-12-18T13:35:51;5.00;;;2.88;;
54235;SDS011;40151;43.606;1.472;2022-12-18T13:41:41;5.43;;;2.78;;
54235;SDS011;40151;43.606;1.472;2022-12-18T13:43:52;5.18;;;3.53;;
54235;SDS011;40151;43.606;1.472;2022-12-18T13:46:44;4.80;;;3.15;;
54235;SDS011;40151;43.606;1.472;2022-12-18T13:51:42;4.22;;;2.78;;
54235;SDS011;40151;43.606;1.472;2022-12-18T13:56:52;5.60;;;2.97;;
54235;SDS011;40151;43.606;1.472;2022-12-18T14:01:44;5.28;;;2.83;;
54235;SDS011;40151;43.606;1.472;2022-12-18T14:04:12;4.18;;;2.80;;
54235;SDS011;40151;43.606;1.472;2022-12-18T14:06:43;4.90;;;2.80;;
54235;SDS011;40151;43.606;1.472;2022-12-18T14:09:12;4.28;;;2.75;;
54235;SDS011;40151;43.606;1.472;2022-12-18T14:11:47;4.43;;;2.92;;
54235;SDS011;40151;43.606;1.472;2022-12-18T14:14:16;5.40;;;3.10;;
54235;SDS011;40151;43.606;1.472;2022-12-18T14:16:42;6.10;;;3.40;;
54235;SDS011;40151;43.606;1.472;2022-12-18T14:19:10;5.30;;;2.90;;
54235;SDS011;40151;43.606;1.472;2022-12-18T14:21:40;4.40;;;2.90;;
54235;SDS011;40151;43.606;1.472;2022-12-18T14:24:18;5.05;;;3.00;;
54235;SDS011;40151;43.606;1.472;2022-12-18T14:26:46;4.93;;;2.90;;
54235;SDS011;40151;43.606;1.472;2022-12-18T14:31:46;6.00;;;2.75;;
54235;SDS011;40151;43.606;1.472;2022-12-18T14:34:15;7.55;;;3.42;;
54235;SDS011;40151;43.606;1.472;2022-12-18T14:36:41;6.03;;;3.38;;
54235;SDS011;40151;43.606;1.472;2022-12-18T14:39:17;4.78;;;2.97;;
54235;SDS011;40151;43.606;1.472;2022-12-18T14:41:43;6.50;;;3.10;;
54235;SDS011;40151;43.606;1.472;2022-12-18T14:44:10;5.28;;;3.53;;
54235;SDS011;40151;43.606;1.472;2022-12-18T14:46:44;4.97;;;3.13;;
54235;SDS011;40151;43.606;1.472;2022-12-18T14:51:49;4.68;;;3.00;;
54235;SDS011;40151;43.606;1.472;2022-12-18T14:54:20;4.85;;;3.33;;
54235;SDS011;40151;43.606;1.472;2022-12-18T14:57:06;4.78;;;2.67;;
54235;SDS011;40151;43.606;1.472;2022-12-18T14:59:50;4.82;;;2.92;;
54235;SDS011;40151;43.606;1.472;2022-12-18T15:02:25;5.63;;;3.13;;
54235;SDS011;40151;43.606;1.472;2022-12-18T15:05:00;5.93;;;3.00;;
54235;SDS011;40151;43.606;1.472;2022-12-18T15:07:38;4.78;;;2.90;;
54235;SDS011;40151;43.606;1.472;2022-12-18T15:23:22;5.20;;;3.30;;
54235;SDS011;40151;43.606;1.472;2022-12-18T15:25:56;5.43;;;3.20;;
54235;SDS011;40151;43.606;1.472;2022-12-18T15:28:34;5.13;;;2.70;;
54235;SDS011;40151;43.606;1.472;2022-12-18T15:33:44;5.20;;;2.97;;
54235;SDS011;40151;43.606;1.472;2022-12-18T15:36:25;4.65;;;2.92;;
54235;SDS011;40151;43.606;1.472;2022-12-18T15:38:52;5.28;;;3.30;;
54235;SDS011;40151;43.606;1.472;2022-12-18T15:41:19;4.80;;;3.15;;
54235;SDS011;40151;43.606;1.472;2022-12-18T15:43:47;4.95;;;2.85;;
54235;SDS011;40151;43.606;1.472;2022-12-18T15:48:43;6.07;;;3.20;;
54235;SDS011;40151;43.606;1.472;2022-12-18T15:54:00;4.72;;;3.00;;
54235;SDS011;40151;43.606;1.472;2022-12-18T15:56:28;5.72;;;3.20;;
54235;SDS011;40151;43.606;1.472;2022-12-18T15:59:13;6.05;;;2.92;;
54235;SDS011;40151;43.606;1.472;2022-12-18T16:01:41;6.13;;;3.28;;
54235;SDS011;40151;43.606;1.472;2022-12-18T16:04:11;4.90;;;2.95;;
54235;SDS011;40151;43.606;1.472;2022-12-18T16:06:39;4.75;;;2.95;;
54235;SDS011;40151;43.606;1.472;2022-12-18T16:09:05;5.22;;;3.20;;
54235;SDS011;40151;43.606;1.472;2022-12-18T16:11:31;5.75;;;2.90;;
54235;SDS011;40151;43.606;1.472;2022-12-18T16:16:49;5.43;;;3.03;;
54235;SDS011;40151;43.606;1.472;2022-12-18T16:19:16;5.43;;;3.17;;
54235;SDS011;40151;43.606;1.472;2022-12-18T16:21:42;5.22;;;2.92;;
54235;SDS011;40151;43.606;1.472;2022-12-18T16:24:15;6.32;;;3.00;;
54235;SDS011;40151;43.606;1.472;2022-12-18T16:26:41;5.07;;;3.35;;
54235;SDS011;40151;43.606;1.472;2022-12-18T16:29:07;7.80;;;3.40;;
54235;SDS011;40151;43.606;1.472;2022-12-18T16:31:33;6.18;;;3.45;;
54235;SDS011;40151;43.606;1.472;2022-12-18T16:36:47;5.68;;;3.05;;
54235;SDS011;40151;43.606;1.472;2022-12-18T16:39:13;5.45;;;3.00;;
54235;SDS011;40151;43.606;1.472;2022-12-18T16:41:38;4.85;;;2.88;;
54235;SDS011;40151;43.606;1.472;2022-12-18T16:44:03;5.18;;;3.08;;
54235;SDS011;40151;43.606;1.472;2022-12-18T16:46:29;5.95;;;2.97;;
54235;SDS011;40151;43.606;1.472;2022-12-18T16:48:56;6.30;;;3.75;;
54235;SDS011;40151;43.606;1.472;2022-12-18T16:51:23;5.82;;;3.17;;
54235;SDS011;40151;43.606;1.472;2022-12-18T16:53:48;5.03;;;2.85;;
54235;SDS011;40151;43.606;1.472;2022-12-18T16:56:14;10.40;;;3.00;;
54235;SDS011;40151;43.606;1.472;2022-12-18T16:58:39;7.53;;;2.97;;
54235;SDS011;40151;43.606;1.472;2022-12-18T17:01:09;6.35;;;3.28;;
54235;SDS011;40151;43.606;1.472;2022-12-18T17:03:35;6.18;;;3.20;;
54235;SDS011;40151;43.606;1.472;2022-12-18T17:06:01;6.35;;;3.45;;
54235;SDS011;40151;43.606;1.472;2022-12-18T17:08:30;8.38;;;3.85;;
54235;SDS011;40151;43.606;1.472;2022-12-18T17:11:02;8.82;;;3.50;;
54235;SDS011;40151;43.606;1.472;2022-12-18T17:13:29;7.25;;;3.10;;
54235;SDS011;40151;43.606;1.472;2022-12-18T17:15:54;6.85;;;3.40;;
54235;SDS011;40151;43.606;1.472;2022-12-18T17:18:19;9.48;;;3.10;;
54235;SDS011;40151;43.606;1.472;2022-12-18T17:20:45;5.90;;;3.17;;
54235;SDS011;40151;43.606;1.472;2022-12-18T17:23:11;5.05;;;3.13;;
54235;SDS011;40151;43.606;1.472;2022-12-18T17:25:38;9.02;;;3.40;;
54235;SDS011;40151;43.606;1.472;2022-12-18T17:28:04;7.57;;;3.42;;
54235;SDS011;40151;43.606;1.472;2022-12-18T17:30:30;10.27;;;3.38;;
54235;SDS011;40151;43.606;1.472;2022-12-18T17:32:55;37.55;;;5.68;;
54235;SDS011;40151;43.606;1.472;2022-12-18T17:35:20;21.35;;;4.72;;
54235;SDS011;40151;43.606;1.472;2022-12-18T17:37:46;17.77;;;4.32;;
54235;SDS011;40151;43.606;1.472;2022-12-18T17:40:12;16.35;;;3.70;;